sensor_id;sensor_type;location;lat;lon;timestamp;pressure;altitude;pressure_sealevel;temperature;humidity
19843;BME280;10082;51.038;6.992;2023-02-19T00:00:12;109442.84;;;-144.33;100.00
19843;BME280;10082;51.038;6.992;2023-02-19T00:02:40;110350.19;;;-144.33;100.00
19843;BME280;10082;51.038;6.992;2023-02-19T00:05:08;108656.38;;;-144.33;100.00
19843;BME280;10082;51.038;6.992;2023-02-19T00:07:35;108676.50;;;-144.33;100.00
19843;BME280;10082;51.038;6.992;2023-02-19T00:10:02;109147.16;;;-144.33;100.00
19843;BME280;10082;51.038;6.992;2023-02-19T00:12:29;108773.03;;;-144.33;100.00
19843;BME280;10082;51.038;6.992;2023-02-19T00:14:57;108829.34;;;-144.33;100.00
19843;BME280;10082;51.038;6.992;2023-02-19T00:17:24;108752.91;;;-144.33;100.00
19843;BME280;10082;51.038;6.992;2023-02-19T00:19:51;108754.94;;;-144.33;100.00
19843;BME280;10082;51.038;6.992;2023-02-19T00:22:18;108274.25;;;-144.33;100.00
19843;BME280;10082;51.038;6.992;2023-02-19T00:24:45;108360.72;;;-144.33;100.00
19843;BME280;10082;51.038;6.992;2023-02-19T00:27:12;108296.38;;;-144.33;100.00
19843;BME280;10082;51.038;6.992;2023-02-19T00:29:39;109662.13;;;-144.33;100.00
19843;BME280;10082;51.038;6.992;2023-02-19T00:32:07;107590.56;;;-144.33;100.00
19843;BME280;10082;51.038;6.992;2023-02-19T00:34:35;108413.03;;;-144.33;100.00
19843;BME280;10082;51.038;6.992;2023-02-19T00:37:02;109414.69;;;-144.33;100.00
19843;BME280;10082;51.038;6.992;2023-02-19T00:39:29;109328.19;;;-144.33;100.00
19843;BME280;10082;51.038;6.992;2023-02-19T00:41:56;109414.69;;;-144.33;100.00
19843;BME280;10082;51.038;6.992;2023-02-19T00:44:25;109255.78;;;-144.33;100.00
19843;BME280;10082;51.038;6.992;2023-02-19T00:46:52;108980.19;;;-144.33;100.00
19843;BME280;10082;51.038;6.992;2023-02-19T00:49:21;109360.38;;;-144.33;100.00
19843;BME280;10082;51.038;6.992;2023-02-19T00:51:53;108833.38;;;-144.33;100.00
19843;BME280;10082;51.038;6.992;2023-02-19T00:54:21;108893.72;;;-144.33;100.00
19843;BME280;10082;51.038;6.992;2023-02-19T00:56:48;107369.38;;;-144.33;100.00
19843;BME280;10082;51.038;6.992;2023-02-19T00:59:15;106649.66;;;-144.33;100.00
19843;BME280;10082;51.038;6.992;2023-02-19T01:01:43;105853.66;;;-144.33;100.00
19843;BME280;10082;51.038;6.992;2023-02-19T01:04:10;105741.09;;;-144.33;100.00
19843;BME280;10082;51.038;6.992;2023-02-19T01:06:39;106175.25;;;-144.33;100.00
19843;BME280;10082;51.038;6.992;2023-02-19T01:09:06;107660.94;;;-144.33;100.00
19843;BME280;10082;51.038;6.992;2023-02-19T01:11:33;106822.53;;;-144.33;100.00
19843;BME280;10082;51.038;6.992;2023-02-19T01:14:01;100229.94;;;-144.33;100.00
19843;BME280;10082;51.038;6.992;2023-02-19T01:16:29;102831.94;;;-144.33;100.00
19843;BME280;10082;51.038;6.992;2023-02-19T01:18:57;105339.16;;;-144.33;100.00
19843;BME280;10082;51.038;6.992;2023-02-19T01:21:26;104089.38;;;-144.33;100.00
19843;BME280;10082;51.038;6.992;2023-02-19T01:23:55;105341.19;;;-144.33;100.00
19843;BME280;10082;51.038;6.992;2023-02-19T01:26:26;108612.13;;;-144.33;100.00
19843;BME280;10082;51.038;6.992;2023-02-19T01:28:54;108421.06;;;-144.33;100.00
19843;BME280;10082;51.038;6.992;2023-02-19T01:31:22;107349.28;;;-144.33;100.00
19843;BME280;10082;51.038;6.992;2023-02-19T01:33:51;107453.81;;;-144.33;100.00
19843;BME280;10082;51.038;6.992;2023-02-19T01:36:19;107807.72;;;-144.33;100.00
19843;BME280;10082;51.038;6.992;2023-02-19T01:38:46;108199.84;;;-144.33;100.00
19843;BME280;10082;51.038;6.992;2023-02-19T01:41:17;109428.78;;;-144.33;100.00
19843;BME280;10082;51.038;6.992;2023-02-19T01:43:58;110060.47;;;-144.33;100.00
19843;BME280;10082;51.038;6.992;2023-02-19T01:46:26;109304.06;;;-144.33;100.00
19843;BME280;10082;51.038;6.992;2023-02-19T01:48:56;109658.09;;;-144.33;100.00
19843;BME280;10082;51.038;6.992;2023-02-19T01:51:25;109523.31;;;-144.33;100.00
19843;BME280;10082;51.038;6.992;2023-02-19T01:53:55;110104.72;;;-144.33;100.00
19843;BME280;10082;51.038;6.992;2023-02-19T01:56:26;110062.47;;;-144.33;100.00
19843;BME280;10082;51.038;6.992;2023-02-19T01:58:53;110076.56;;;-144.33;100.00
19843;BME280;10082;51.038;6.992;2023-02-19T02:01:21;109670.16;;;-144.33;100.00
19843;BME280;10082;51.038;6.992;2023-02-19T02:03:48;108276.28;;;-144.33;100.00
19843;BME280;10082;51.038;6.992;2023-02-19T02:06:20;110466.91;;;-144.33;100.00
19843;BME280;10082;51.038;6.992;2023-02-19T02:08:50;110104.72;;;-144.33;100.00
19843;BME280;10082;51.038;6.992;2023-02-19T02:11:39;108000.75;;;-144.33;100.00
19843;BME280;10082;51.038;6.992;2023-02-19T02:14:08;108640.28;;;-144.33;100.00
19843;BME280;10082;51.038;6.992;2023-02-19T02:16:43;108133.47;;;-144.33;100.00
19843;BME280;10082;51.038;6.992;2023-02-19T02:19:29;107644.84;;;-144.33;100.00
19843;BME280;10082;51.038;6.992;2023-02-19T02:22:06;109032.50;;;-144.33;100.00
19843;BME280;10082;51.038;6.992;2023-02-19T02:25:02;110513.19;;;-144.33;100.00
19843;BME280;10082;51.038;6.992;2023-02-19T02:30:30;109567.56;;;-144.33;100.00
19843;BME280;10082;51.038;6.992;2023-02-19T02:33:05;109458.94;;;-144.33;100.00
19843;BME280;10082;51.038;6.992;2023-02-19T02:35:41;107345.25;;;-144.33;100.00
19843;BME280;10082;51.038;6.992;2023-02-19T02:38:12;107280.91;;;-144.33;100.00
19843;BME280;10082;51.038;6.992;2023-02-19T02:40:42;109426.75;;;-144.33;100.00
19843;BME280;10082;51.038;6.992;2023-02-19T02:43:12;108298.38;;;-144.33;100.00
19843;BME280;10082;51.038;6.992;2023-02-19T02:45:41;108169.69;;;-144.33;100.00
19843;BME280;10082;51.038;6.992;2023-02-19T02:48:23;108777.06;;;-144.33;100.00
19843;BME280;10082;51.038;6.992;2023-02-19T02:50:55;106512.94;;;-144.33;100.00
19843;BME280;10082;51.038;6.992;2023-02-19T02:53:26;107035.63;;;-144.33;100.00
19843;BME280;10082;51.038;6.992;2023-02-19T02:56:14;104893.06;;;-144.33;100.00
19843;BME280;10082;51.038;6.992;2023-02-19T02:58:42;105706.94;;;-144.33;100.00
19843;BME280;10082;51.038;6.992;2023-02-19T03:01:18;107729.28;;;-144.33;100.00
19843;BME280;10082;51.038;6.992;2023-02-19T03:04:08;103822.19;;;-144.33;100.00
19843;BME280;10082;51.038;6.992;2023-02-19T03:06:36;109467.00;;;-144.33;100.00
19843;BME280;10082;51.038;6.992;2023-02-19T03:09:08;108535.69;;;-144.33;100.00
19843;BME280;10082;51.038;6.992;2023-02-19T03:11:40;108153.59;;;-144.33;100.00
19843;BME280;10082;51.038;6.992;2023-02-19T03:14:30;107449.81;;;-144.33;100.00
19843;BME280;10082;51.038;6.992;2023-02-19T03:17:23;105049.78;;;-144.33;100.00
19843;BME280;10082;51.038;6.992;2023-02-19T03:20:12;105861.69;;;-144.33;100.00
19843;BME280;10082;51.038;6.992;2023-02-19T03:22:48;105049.78;;;-144.33;100.00
19843;BME280;10082;51.038;6.992;2023-02-19T03:25:19;106545.13;;;-144.33;100.00
19843;BME280;10082;51.038;6.992;2023-02-19T03:28:09;105958.19;;;-144.33;100.00
19843;BME280;10082;51.038;6.992;2023-02-19T03:30:40;106597.38;;;-144.33;100.00
19843;BME280;10082;51.038;6.992;2023-02-19T03:33:13;104455.03;;;-144.33;100.00
19843;BME280;10082;51.038;6.992;2023-02-19T03:35:45;107795.66;;;-144.33;100.00
19843;BME280;10082;51.038;6.992;2023-02-19T03:38:16;108640.28;;;-144.33;100.00
19843;BME280;10082;51.038;6.992;2023-02-19T03:40:52;107950.50;;;-144.33;100.00
19843;BME280;10082;51.038;6.992;2023-02-19T03:43:26;111901.81;;;-144.33;100.00
19843;BME280;10082;51.038;6.992;2023-02-19T03:46:05;111531.47;;;-144.33;100.00
19843;BME280;10082;51.038;6.992;2023-02-19T03:48:37;109565.56;;;-144.33;100.00
19843;BME280;10082;51.038;6.992;2023-02-19T03:51:19;106643.63;;;-144.33;100.00
19843;BME280;10082;51.038;6.992;2023-02-19T03:53:57;108362.75;;;-144.33;100.00
19843;BME280;10082;51.038;6.992;2023-02-19T03:56:33;109758.69;;;-144.33;100.00
19843;BME280;10082;51.038;6.992;2023-02-19T03:59:08;109042.56;;;-144.33;100.00
19843;BME280;10082;51.038;6.992;2023-02-19T04:01:39;104601.72;;;-144.33;100.00
19843;BME280;10082;51.038;6.992;2023-02-19T04:04:16;104688.09;;;-144.33;100.00
19843;BME280;10082;51.038;6.992;2023-02-19T04:06:46;106685.84;;;-144.33;100.00
19843;BME280;10082;51.038;6.992;2023-02-19T04:09:18;105266.81;;;-144.33;100.00
19843;BME280;10082;51.038;6.992;2023-02-19T04:11:52;104240.06;;;-144.33;100.00
19843;BME280;10082;51.038;6.992;2023-02-19T04:14:23;105984.31;;;-144.33;100.00
19843;BME280;10082;51.038;6.992;2023-02-19T04:16:58;107401.56;;;-144.33;100.00
19843;BME280;10082;51.038;6.992;2023-02-19T04:19:29;107964.56;;;-144.33;100.00
19843;BME280;10082;51.038;6.992;2023-02-19T04:21:59;98740.97;;;-144.33;100.00
19843;BME280;10082;51.038;6.992;2023-02-19T04:24:31;103802.09;;;-144.33;100.00
19843;BME280;10082;51.038;6.992;2023-02-19T04:27:00;108250.13;;;-144.33;100.00
19843;BME280;10082;51.038;6.992;2023-02-19T04:29:28;104643.91;;;-144.33;100.00
19843;BME280;10082;51.038;6.992;2023-02-19T04:31:55;102699.41;;;-144.33;100.00
19843;BME280;10082;51.038;6.992;2023-02-19T04:34:22;102948.44;;;-144.33;100.00
19843;BME280;10082;51.038;6.992;2023-02-19T04:36:51;105976.25;;;-144.33;100.00
19843;BME280;10082;51.038;6.992;2023-02-19T04:39:19;100478.81;;;-144.33;100.00
19843;BME280;10082;51.038;6.992;2023-02-19T04:41:46;99780.38;;;-144.33;100.00
19843;BME280;10082;51.038;6.992;2023-02-19T04:44:12;100119.56;;;-144.33;100.00
19843;BME280;10082;51.038;6.992;2023-02-19T04:46:40;97798.09;;;-144.33;100.00
19843;BME280;10082;51.038;6.992;2023-02-19T04:49:07;98684.78;;;-144.33;100.00
19843;BME280;10082;51.038;6.992;2023-02-19T04:51:34;96975.75;;;-144.33;100.00
19843;BME280;10082;51.038;6.992;2023-02-19T04:54:02;100007.16;;;-144.33;100.00
19843;BME280;10082;51.038;6.992;2023-02-19T04:56:30;99816.50;;;-144.33;100.00
19843;BME280;10082;51.038;6.992;2023-02-19T04:59:00;97721.84;;;-144.33;100.00
19843;BME280;10082;51.038;6.992;2023-02-19T05:01:27;100402.56;;;-144.33;100.00
19843;BME280;10082;51.038;6.992;2023-02-19T05:03:54;105540.13;;;-144.33;100.00
19843;BME280;10082;51.038;6.992;2023-02-19T05:06:21;103137.22;;;-144.33;100.00
19843;BME280;10082;51.038;6.992;2023-02-19T05:08:48;104567.56;;;-144.33;100.00
19843;BME280;10082;51.038;6.992;2023-02-19T05:11:17;108398.94;;;-144.33;100.00
19843;BME280;10082;51.038;6.992;2023-02-19T05:13:44;104641.91;;;-144.33;100.00
19843;BME280;10082;51.038;6.992;2023-02-19T05:16:13;100310.22;;;-144.33;100.00
19843;BME280;10082;51.038;6.992;2023-02-19T05:18:41;106573.25;;;-144.33;100.00
19843;BME280;10082;51.038;6.992;2023-02-19T05:21:09;104537.41;;;-144.33;100.00
19843;BME280;10082;51.038;6.992;2023-02-19T05:23:36;104228.00;;;-144.33;100.00
19843;BME280;10082;51.038;6.992;2023-02-19T05:26:04;108181.75;;;-144.33;100.00
19843;BME280;10082;51.038;6.992;2023-02-19T05:28:33;104768.47;;;-144.33;100.00
19843;BME280;10082;51.038;6.992;2023-02-19T05:31:04;101030.84;;;-144.33;100.00
19843;BME280;10082;51.038;6.992;2023-02-19T05:33:32;103183.44;;;-144.33;100.00
19843;BME280;10082;51.038;6.992;2023-02-19T05:36:04;106846.66;;;-144.33;100.00
19843;BME280;10082;51.038;6.992;2023-02-19T05:38:31;102430.28;;;-144.33;100.00
19843;BME280;10082;51.038;6.992;2023-02-19T05:41:06;102886.19;;;-144.33;100.00
19843;BME280;10082;51.038;6.992;2023-02-19T05:43:35;102169.25;;;-144.33;100.00
19843;BME280;10082;51.038;6.992;2023-02-19T05:46:02;101416.28;;;-144.33;100.00
19843;BME280;10082;51.038;6.992;2023-02-19T05:48:29;106715.97;;;-144.33;100.00
19843;BME280;10082;51.038;6.992;2023-02-19T05:51:00;104712.22;;;-144.33;100.00
19843;BME280;10082;51.038;6.992;2023-02-19T05:53:27;107395.53;;;-144.33;100.00
19843;BME280;10082;51.038;6.992;2023-02-19T05:55:54;107053.72;;;-144.33;100.00
19843;BME280;10082;51.038;6.992;2023-02-19T05:58:21;108853.47;;;-144.33;100.00
19843;BME280;10082;51.038;6.992;2023-02-19T06:00:50;109601.78;;;-144.33;100.00
19843;BME280;10082;51.038;6.992;2023-02-19T06:03:17;110460.88;;;-144.33;100.00
19843;BME280;10082;51.038;6.992;2023-02-19T06:05:44;109094.84;;;-144.33;100.00
19843;BME280;10082;51.038;6.992;2023-02-19T06:08:12;107970.59;;;-144.33;100.00
19843;BME280;10082;51.038;6.992;2023-02-19T06:10:39;108081.19;;;-144.33;100.00
19843;BME280;10082;51.038;6.992;2023-02-19T06:16:31;104238.06;;;-144.33;100.00
19843;BME280;10082;51.038;6.992;2023-02-19T06:19:00;107461.88;;;-144.33;100.00
19843;BME280;10082;51.038;6.992;2023-02-19T06:21:27;105319.06;;;-144.33;100.00
19843;BME280;10082;51.038;6.992;2023-02-19T06:23:54;106754.19;;;-144.33;100.00
19843;BME280;10082;51.038;6.992;2023-02-19T06:26:22;105771.25;;;-144.33;100.00
19843;BME280;10082;51.038;6.992;2023-02-19T06:28:51;107236.69;;;-144.33;100.00
19843;BME280;10082;51.038;6.992;2023-02-19T06:31:20;107492.03;;;-144.33;100.00
19843;BME280;10082;51.038;6.992;2023-02-19T06:33:49;106904.94;;;-144.33;100.00
19843;BME280;10082;51.038;6.992;2023-02-19T06:36:17;108817.28;;;-144.33;100.00
19843;BME280;10082;51.038;6.992;2023-02-19T06:38:45;108111.38;;;-144.33;100.00
19843;BME280;10082;51.038;6.992;2023-02-19T06:41:12;108129.47;;;-144.33;100.00
19843;BME280;10082;51.038;6.992;2023-02-19T06:43:40;109477.03;;;-144.33;100.00
19843;BME280;10082;51.038;6.992;2023-02-19T06:46:07;107878.09;;;-144.33;100.00
19843;BME280;10082;51.038;6.992;2023-02-19T06:48:38;108398.94;;;-144.33;100.00
19843;BME280;10082;51.038;6.992;2023-02-19T06:51:10;107278.91;;;-144.33;100.00
19843;BME280;10082;51.038;6.992;2023-02-19T06:53:37;106529.03;;;-144.33;100.00
19843;BME280;10082;51.038;6.992;2023-02-19T06:56:05;106319.97;;;-144.33;100.00
19843;BME280;10082;51.038;6.992;2023-02-19T06:58:34;108863.53;;;-144.33;100.00
19843;BME280;10082;51.038;6.992;2023-02-19T07:01:01;106627.53;;;-144.33;100.00
19843;BME280;10082;51.038;6.992;2023-02-19T07:03:28;104860.91;;;-144.33;100.00
19843;BME280;10082;51.038;6.992;2023-02-19T07:05:58;103848.31;;;-144.33;100.00
19843;BME280;10082;51.038;6.992;2023-02-19T07:08:26;102691.38;;;-144.33;100.00
19843;BME280;10082;51.038;6.992;2023-02-19T07:10:54;102765.69;;;-144.33;100.00
19843;BME280;10082;51.038;6.992;2023-02-19T07:13:21;104816.69;;;-144.33;100.00
19843;BME280;10082;51.038;6.992;2023-02-19T07:15:48;105811.44;;;-144.33;100.00
19843;BME280;10082;51.038;6.992;2023-02-19T07:18:15;103711.72;;;-144.33;100.00
19843;BME280;10082;51.038;6.992;2023-02-19T07:20:44;103850.31;;;-144.33;100.00
19843;BME280;10082;51.038;6.992;2023-02-19T07:23:10;105234.66;;;-144.33;100.00
19843;BME280;10082;51.038;6.992;2023-02-19T07:25:39;108929.91;;;-144.33;100.00
19843;BME280;10082;51.038;6.992;2023-02-19T07:28:06;109036.53;;;-144.33;100.00
19843;BME280;10082;51.038;6.992;2023-02-19T07:30:34;106277.75;;;-144.33;100.00
19843;BME280;10082;51.038;6.992;2023-02-19T07:33:01;106368.22;;;-144.33;100.00
19843;BME280;10082;51.038;6.992;2023-02-19T07:35:28;105445.69;;;-144.33;100.00
19843;BME280;10082;51.038;6.992;2023-02-19T07:37:55;105930.03;;;-144.33;100.00
19843;BME280;10082;51.038;6.992;2023-02-19T07:40:22;103846.31;;;-144.33;100.00
19843;BME280;10082;51.038;6.992;2023-02-19T07:42:50;107228.63;;;-144.33;100.00
19843;BME280;10082;51.038;6.992;2023-02-19T07:45:17;108199.84;;;-144.33;100.00
19843;BME280;10082;51.038;6.992;2023-02-19T07:47:45;107433.72;;;-144.33;100.00
19843;BME280;10082;51.038;6.992;2023-02-19T07:50:11;107301.03;;;-144.33;100.00
19843;BME280;10082;51.038;6.992;2023-02-19T07:52:38;107099.97;;;-144.33;100.00
19843;BME280;10082;51.038;6.992;2023-02-19T07:55:05;106637.59;;;-144.33;100.00
19843;BME280;10082;51.038;6.992;2023-02-19T07:57:33;108479.38;;;-144.33;100.00
19843;BME280;10082;51.038;6.992;2023-02-19T08:00:01;109998.09;;;-144.33;100.00
19843;BME280;10082;51.038;6.992;2023-02-19T08:02:38;111036.38;;;-144.33;100.00
19843;BME280;10082;51.038;6.992;2023-02-19T08:05:36;110961.91;;;-144.33;100.00
19843;BME280;10082;51.038;6.992;2023-02-19T08:08:05;112171.53;;;-144.33;100.00
19843;BME280;10082;51.038;6.992;2023-02-19T08:10:32;109829.09;;;-144.33;100.00
19843;BME280;10082;51.038;6.992;2023-02-19T08:13:16;108181.75;;;-144.33;100.00
19843;BME280;10082;51.038;6.992;2023-02-19T08:15:51;109774.78;;;-144.33;100.00
19843;BME280;10082;51.038;6.992;2023-02-19T08:18:20;105487.88;;;-144.33;100.00
19843;BME280;10082;51.038;6.992;2023-02-19T08:20:47;106521.00;;;-144.33;100.00
19843;BME280;10082;51.038;6.992;2023-02-19T08:23:25;107757.44;;;-144.33;100.00
19843;BME280;10082;51.038;6.992;2023-02-19T08:25:55;106814.50;;;-144.33;100.00
19843;BME280;10082;51.038;6.992;2023-02-19T08:28:23;105924.00;;;-144.33;100.00
19843;BME280;10082;51.038;6.992;2023-02-19T08:30:52;103705.69;;;-144.33;100.00
19843;BME280;10082;51.038;6.992;2023-02-19T08:33:20;101374.13;;;-144.33;100.00
19843;BME280;10082;51.038;6.992;2023-02-19T08:35:47;106551.16;;;-144.33;100.00
19843;BME280;10082;51.038;6.992;2023-02-19T08:38:14;107166.31;;;-144.33;100.00
19843;BME280;10082;51.038;6.992;2023-02-19T08:40:42;108155.59;;;-144.33;100.00
19843;BME280;10082;51.038;6.992;2023-02-19T08:43:11;108318.50;;;-144.33;100.00
19843;BME280;10082;51.038;6.992;2023-02-19T08:45:45;109348.31;;;-144.33;100.00
19843;BME280;10082;51.038;6.992;2023-02-19T08:48:14;109756.69;;;-144.33;100.00
19843;BME280;10082;51.038;6.992;2023-02-19T08:50:41;109507.22;;;-144.33;100.00
19843;BME280;10082;51.038;6.992;2023-02-19T08:53:08;110120.81;;;-144.33;100.00
19843;BME280;10082;51.038;6.992;2023-02-19T08:55:36;111962.19;;;-144.33;100.00
19843;BME280;10082;51.038;6.992;2023-02-19T08:58:04;112117.19;;;-144.33;100.00
19843;BME280;10082;51.038;6.992;2023-02-19T09:00:31;112171.53;;;-144.33;100.00
19843;BME280;10082;51.038;6.992;2023-02-19T09:02:58;112171.53;;;-144.33;100.00
19843;BME280;10082;51.038;6.992;2023-02-19T09:05:27;112171.53;;;-144.33;100.00
19843;BME280;10082;51.038;6.992;2023-02-19T09:07:54;112171.53;;;-144.33;100.00
19843;BME280;10082;51.038;6.992;2023-02-19T09:10:21;112171.53;;;-144.33;100.00
19843;BME280;10082;51.038;6.992;2023-02-19T09:12:48;112171.53;;;-144.33;100.00
19843;BME280;10082;51.038;6.992;2023-02-19T09:15:15;112171.53;;;-144.33;100.00
19843;BME280;10082;51.038;6.992;2023-02-19T09:17:50;112171.53;;;-144.33;100.00
19843;BME280;10082;51.038;6.992;2023-02-19T09:20:17;112171.53;;;-144.33;100.00
19843;BME280;10082;51.038;6.992;2023-02-19T09:22:46;112171.53;;;-144.33;100.00
19843;BME280;10082;51.038;6.992;2023-02-19T09:25:13;112171.53;;;-144.33;100.00
19843;BME280;10082;51.038;6.992;2023-02-19T09:27:40;112171.53;;;-144.33;100.00
19843;BME280;10082;51.038;6.992;2023-02-19T09:30:08;112171.53;;;-144.33;100.00
19843;BME280;10082;51.038;6.992;2023-02-19T09:32:35;112171.53;;;-144.33;100.00
19843;BME280;10082;51.038;6.992;2023-02-19T09:35:02;112171.53;;;-144.33;100.00
19843;BME280;10082;51.038;6.992;2023-02-19T09:37:29;112171.53;;;-144.33;100.00
19843;BME280;10082;51.038;6.992;2023-02-19T09:39:58;112171.53;;;-144.33;100.00
19843;BME280;10082;51.038;6.992;2023-02-19T09:42:27;112171.53;;;-144.33;100.00
19843;BME280;10082;51.038;6.992;2023-02-19T09:44:57;112171.53;;;-144.33;100.00
19843;BME280;10082;51.038;6.992;2023-02-19T09:47:26;112171.53;;;-144.33;100.00
19843;BME280;10082;51.038;6.992;2023-02-19T09:49:56;112171.53;;;-144.33;100.00
19843;BME280;10082;51.038;6.992;2023-02-19T09:52:29;112171.53;;;-144.33;100.00
19843;BME280;10082;51.038;6.992;2023-02-19T09:55:04;112171.53;;;-144.33;100.00
19843;BME280;10082;51.038;6.992;2023-02-19T09:57:41;112171.53;;;-144.33;100.00
19843;BME280;10082;51.038;6.992;2023-02-19T10:00:19;112171.53;;;-144.33;100.00
19843;BME280;10082;51.038;6.992;2023-02-19T10:02:50;112171.53;;;-144.33;100.00
19843;BME280;10082;51.038;6.992;2023-02-19T10:05:17;112171.53;;;-144.33;100.00
19843;BME280;10082;51.038;6.992;2023-02-19T10:07:47;112171.53;;;-144.33;100.00
19843;BME280;10082;51.038;6.992;2023-02-19T10:10:28;112171.53;;;-144.33;100.00
19843;BME280;10082;51.038;6.992;2023-02-19T10:13:04;112171.53;;;-144.33;100.00
19843;BME280;10082;51.038;6.992;2023-02-19T10:15:44;112171.53;;;-144.33;100.00
19843;BME280;10082;51.038;6.992;2023-02-19T10:18:15;112171.53;;;-144.33;100.00
19843;BME280;10082;51.038;6.992;2023-02-19T10:20:42;112171.53;;;-144.33;100.00
19843;BME280;10082;51.038;6.992;2023-02-19T10:23:12;112171.53;;;-144.33;100.00
19843;BME280;10082;51.038;6.992;2023-02-19T10:25:44;112171.53;;;-144.33;100.00
19843;BME280;10082;51.038;6.992;2023-02-19T10:28:14;112171.53;;;-144.33;100.00
19843;BME280;10082;51.038;6.992;2023-02-19T10:30:44;111432.84;;;-144.33;100.00
19843;BME280;10082;51.038;6.992;2023-02-19T10:33:15;110969.97;;;-144.33;100.00
19843;BME280;10082;51.038;6.992;2023-02-19T10:35:53;110207.34;;;-144.33;100.00
19843;BME280;10082;51.038;6.992;2023-02-19T10:38:24;110004.13;;;-144.33;100.00
19843;BME280;10082;51.038;6.992;2023-02-19T10:40:59;109827.09;;;-144.33;100.00
19843;BME280;10082;51.038;6.992;2023-02-19T10:43:29;107582.50;;;-144.33;100.00
19843;BME280;10082;51.038;6.992;2023-02-19T10:46:01;106100.88;;;-144.33;100.00
19843;BME280;10082;51.038;6.992;2023-02-19T10:48:31;106076.75;;;-144.33;100.00
19843;BME280;10082;51.038;6.992;2023-02-19T10:51:03;104959.38;;;-144.33;100.00
19843;BME280;10082;51.038;6.992;2023-02-19T10:53:41;105566.25;;;-144.33;100.00
19843;BME280;10082;51.038;6.992;2023-02-19T10:56:12;103446.56;;;-144.33;100.00
19843;BME280;10082;51.038;6.992;2023-02-19T10:58:40;104434.94;;;-144.33;100.00
19843;BME280;10082;51.038;6.992;2023-02-19T11:01:18;103992.94;;;-144.33;100.00
19843;BME280;10082;51.038;6.992;2023-02-19T11:03:46;107216.56;;;-144.33;100.00
19843;BME280;10082;51.038;6.992;2023-02-19T11:06:15;106480.78;;;-144.33;100.00
19843;BME280;10082;51.038;6.992;2023-02-19T11:08:50;107331.19;;;-144.33;100.00
19843;BME280;10082;51.038;6.992;2023-02-19T11:11:28;107475.94;;;-144.33;100.00
19843;BME280;10082;51.038;6.992;2023-02-19T11:13:57;108360.72;;;-144.33;100.00
19843;BME280;10082;51.038;6.992;2023-02-19T11:16:40;108857.50;;;-144.33;100.00
19843;BME280;10082;51.038;6.992;2023-02-19T11:19:23;109686.25;;;-144.33;100.00
19843;BME280;10082;51.038;6.992;2023-02-19T11:21:51;109957.88;;;-144.33;100.00
19843;BME280;10082;51.038;6.992;2023-02-19T11:24:23;110507.16;;;-144.33;100.00
19843;BME280;10082;51.038;6.992;2023-02-19T11:26:54;110913.63;;;-144.33;100.00
19843;BME280;10082;51.038;6.992;2023-02-19T11:29:23;111014.25;;;-144.33;100.00
19843;BME280;10082;51.038;6.992;2023-02-19T11:31:53;111147.06;;;-144.33;100.00
19843;BME280;10082;51.038;6.992;2023-02-19T11:34:25;109937.75;;;-144.33;100.00
19843;BME280;10082;51.038;6.992;2023-02-19T11:37:13;112171.53;;;-144.33;100.00
19843;BME280;10082;51.038;6.992;2023-02-19T11:39:43;112171.53;;;-144.33;100.00
19843;BME280;10082;51.038;6.992;2023-02-19T11:45:15;112171.53;;;-144.33;100.00
19843;BME280;10082;51.038;6.992;2023-02-19T11:48:11;112171.53;;;-144.33;100.00
19843;BME280;10082;51.038;6.992;2023-02-19T11:50:50;112171.53;;;-144.33;100.00
19843;BME280;10082;51.038;6.992;2023-02-19T11:53:24;112171.53;;;-144.33;100.00
19843;BME280;10082;51.038;6.992;2023-02-19T11:56:02;112171.53;;;-144.33;100.00
19843;BME280;10082;51.038;6.992;2023-02-19T11:58:54;112171.53;;;-144.33;100.00
19843;BME280;10082;51.038;6.992;2023-02-19T12:01:29;112171.53;;;-144.33;100.00
19843;BME280;10082;51.038;6.992;2023-02-19T12:10:25;112171.53;;;-144.33;100.00
19843;BME280;10082;51.038;6.992;2023-02-19T12:13:03;112171.53;;;-144.33;100.00
19843;BME280;10082;51.038;6.992;2023-02-19T12:15:49;112171.53;;;-144.33;100.00
19843;BME280;10082;51.038;6.992;2023-02-19T12:21:35;112171.53;;;-144.33;100.00
19843;BME280;10082;51.038;6.992;2023-02-19T12:24:30;112171.53;;;-144.33;100.00
19843;BME280;10082;51.038;6.992;2023-02-19T12:27:14;112171.53;;;-144.33;100.00
19843;BME280;10082;51.038;6.992;2023-02-19T12:29:54;112171.53;;;-144.33;100.00
19843;BME280;10082;51.038;6.992;2023-02-19T12:32:46;112171.53;;;-144.33;100.00
19843;BME280;10082;51.038;6.992;2023-02-19T12:35:44;112171.53;;;-144.33;100.00
19843;BME280;10082;51.038;6.992;2023-02-19T12:38:20;112171.53;;;-144.33;100.00
19843;BME280;10082;51.038;6.992;2023-02-19T12:41:06;112171.53;;;-144.33;100.00
19843;BME280;10082;51.038;6.992;2023-02-19T12:43:40;112171.53;;;-144.33;100.00
19843;BME280;10082;51.038;6.992;2023-02-19T12:46:14;112171.53;;;-144.33;100.00
19843;BME280;10082;51.038;6.992;2023-02-19T12:48:51;112171.53;;;-144.33;100.00
19843;BME280;10082;51.038;6.992;2023-02-19T12:51:25;112171.53;;;-144.33;100.00
19843;BME280;10082;51.038;6.992;2023-02-19T12:53:55;112171.53;;;-144.33;100.00
19843;BME280;10082;51.038;6.992;2023-02-19T12:56:28;112171.53;;;-144.33;100.00
19843;BME280;10082;51.038;6.992;2023-02-19T12:58:59;112171.53;;;-144.33;100.00